createdAt,value
2017-05-14T00:00:38.978Z,0
2017-05-14T00:01:40.402Z,0
2017-05-14T00:02:41.826Z,0
2017-05-14T00:03:43.257Z,0
2017-05-14T00:04:44.693Z,0
2017-05-14T00:05:46.120Z,0
2017-05-14T00:06:47.547Z,0
2017-05-14T00:07:48.988Z,0
2017-05-14T00:08:50.419Z,0
2017-05-14T00:09:51.851Z,0
2017-05-14T00:10:53.301Z,0
2017-05-14T00:11:54.733Z,0
2017-05-14T00:12:56.162Z,0
2017-05-14T00:13:57.592Z,0
2017-05-14T00:14:59.014Z,0
2017-05-14T00:16:00.447Z,0
2017-05-14T00:17:01.896Z,0
2017-05-14T00:18:03.314Z,0
2017-05-14T00:19:04.743Z,0
2017-05-14T00:20:06.175Z,0
2017-05-14T00:21:07.610Z,0
2017-05-14T00:22:09.095Z,0
2017-05-14T00:23:10.526Z,0
2017-05-14T00:24:11.955Z,0
2017-05-14T00:25:13.383Z,0
2017-05-14T00:26:14.814Z,0
2017-05-14T00:27:16.243Z,0
2017-05-14T00:28:17.668Z,0
2017-05-14T00:29:19.104Z,0
2017-05-14T00:30:20.603Z,0
2017-05-14T00:31:22.047Z,0
2017-05-14T00:32:23.471Z,0
2017-05-14T00:33:24.899Z,0
2017-05-14T00:34:26.326Z,0
2017-05-14T00:35:27.761Z,0
2017-05-14T00:36:29.197Z,0
2017-05-14T00:37:30.628Z,0
2017-05-14T00:38:32.062Z,0
2017-05-14T00:39:33.486Z,0
2017-05-14T00:40:34.932Z,0
2017-05-14T00:41:36.369Z,0
2017-05-14T00:42:37.803Z,0
2017-05-14T00:43:39.228Z,0
2017-05-14T00:44:40.659Z,0
2017-05-14T00:45:42.092Z,0
2017-05-14T00:46:43.525Z,0
2017-05-14T00:47:44.949Z,0
2017-05-14T00:48:46.380Z,0
2017-05-14T00:49:47.805Z,0
2017-05-14T00:50:49.226Z,0
2017-05-14T00:51:50.660Z,0
2017-05-14T00:52:52.096Z,0
2017-05-14T00:53:53.532Z,0
2017-05-14T00:54:54.960Z,0
2017-05-14T00:55:56.388Z,0
2017-05-14T00:56:57.817Z,0
2017-05-14T00:57:59.252Z,0
2017-05-14T00:59:00.686Z,0
2017-05-14T01:00:02.119Z,0
2017-05-14T01:01:03.548Z,0
2017-05-14T01:02:04.975Z,0
2017-05-14T01:03:06.403Z,0
2017-05-14T01:04:07.831Z,0
2017-05-14T01:05:09.264Z,0
2017-05-14T01:06:10.694Z,0
2017-05-14T01:07:12.122Z,0
2017-05-14T01:08:14.135Z,0
2017-05-14T01:09:15.565Z,0
2017-05-14T01:10:17.001Z,0
2017-05-14T01:11:19.231Z,0
2017-05-14T01:12:20.427Z,0
2017-05-14T01:13:22.643Z,0
2017-05-14T01:14:24.071Z,0
2017-05-14T01:15:25.502Z,0
2017-05-14T01:16:26.941Z,0
2017-05-14T01:17:28.368Z,0
2017-05-14T01:18:29.803Z,0
2017-05-14T01:19:31.233Z,0
2017-05-14T01:20:32.663Z,0
2017-05-14T01:21:34.089Z,0
2017-05-14T01:22:35.523Z,0
2017-05-14T01:23:36.947Z,0
2017-05-14T01:24:38.379Z,0
2017-05-14T01:25:39.807Z,0
2017-05-14T01:26:41.235Z,0
2017-05-14T01:27:42.673Z,0
2017-05-14T01:28:44.098Z,0
2017-05-14T01:29:45.530Z,0
2017-05-14T01:30:46.967Z,0
2017-05-14T01:31:48.394Z,0
2017-05-14T01:32:49.818Z,0
2017-05-14T01:33:51.246Z,0
2017-05-14T01:34:52.669Z,0
2017-05-14T01:35:54.093Z,0
2017-05-14T01:36:55.525Z,0
2017-05-14T01:37:56.953Z,0
2017-05-14T01:38:58.386Z,0
2017-05-14T01:39:59.820Z,0
2017-05-14T01:41:01.247Z,0
2017-05-14T01:42:02.680Z,0
2017-05-14T01:43:04.110Z,0
2017-05-14T01:44:05.539Z,0
2017-05-14T01:45:07.018Z,0
2017-05-14T01:46:08.446Z,0
2017-05-14T01:47:09.876Z,0
2017-05-14T01:48:11.316Z,0
2017-05-14T01:49:12.744Z,0
2017-05-14T01:50:14.167Z,0
2017-05-14T01:51:15.600Z,0
2017-05-14T01:52:17.040Z,0
2017-05-14T01:53:18.464Z,0
2017-05-14T01:54:19.901Z,0
2017-05-14T01:55:21.332Z,0
2017-05-14T01:56:22.765Z,0
2017-05-14T01:57:24.187Z,0
2017-05-14T01:58:25.624Z,0
2017-05-14T01:59:27.053Z,0
2017-05-14T02:00:28.486Z,0
2017-05-14T02:01:29.913Z,0
2017-05-14T02:02:31.386Z,0
2017-05-14T02:03:32.777Z,0
2017-05-14T02:04:34.202Z,0
2017-05-14T02:05:35.633Z,0
2017-05-14T02:06:37.070Z,0
2017-05-14T02:07:38.496Z,0
2017-05-14T02:08:39.919Z,0
2017-05-14T02:09:41.352Z,0
2017-05-14T02:10:42.784Z,0
2017-05-14T02:11:44.219Z,0
2017-05-14T02:12:45.643Z,0
2017-05-14T02:13:47.075Z,0
2017-05-14T02:14:48.501Z,0
2017-05-14T02:15:49.933Z,0
2017-05-14T02:16:51.360Z,0
2017-05-14T02:17:52.779Z,0
2017-05-14T02:18:54.205Z,0
2017-05-14T02:19:55.634Z,0
2017-05-14T02:20:57.064Z,0
2017-05-14T02:21:58.495Z,0
2017-05-14T02:22:59.920Z,0
2017-05-14T02:24:01.354Z,0
2017-05-14T02:25:02.777Z,0
2017-05-14T02:26:04.213Z,0
2017-05-14T02:27:05.640Z,0
2017-05-14T02:28:07.082Z,0
2017-05-14T02:29:08.507Z,0
2017-05-14T02:30:09.942Z,0
2017-05-14T02:31:11.368Z,0
2017-05-14T02:32:12.798Z,0
2017-05-14T02:33:14.860Z,0
2017-05-14T02:34:16.288Z,0
2017-05-14T02:35:17.718Z,0
2017-05-14T02:36:19.171Z,0
2017-05-14T02:37:20.603Z,0
2017-05-14T02:38:22.028Z,0
2017-05-14T02:39:23.452Z,0
2017-05-14T02:40:24.970Z,0
2017-05-14T02:41:26.403Z,0
2017-05-14T02:42:27.832Z,0
2017-05-14T02:43:29.251Z,0
2017-05-14T02:44:30.752Z,0
2017-05-14T02:45:32.176Z,0
2017-05-14T02:46:33.598Z,0
2017-05-14T02:47:35.029Z,0
2017-05-14T02:48:36.505Z,0
2017-05-14T02:49:37.934Z,0
2017-05-14T02:50:39.365Z,0
2017-05-14T02:51:41.725Z,0
2017-05-14T02:52:43.169Z,0
2017-05-14T02:53:44.705Z,0
2017-05-14T02:54:46.129Z,0
2017-05-14T02:55:48.348Z,0
2017-05-14T02:56:49.776Z,0
2017-05-14T02:57:51.208Z,0
2017-05-14T02:58:52.635Z,0
2017-05-14T02:59:54.063Z,0
2017-05-14T03:00:55.492Z,0
2017-05-14T03:01:56.918Z,0
2017-05-14T03:02:58.342Z,0
2017-05-14T03:03:59.776Z,0
2017-05-14T03:05:02.767Z,0
2017-05-14T03:06:03.406Z,0
2017-05-14T03:07:04.832Z,0
2017-05-14T03:08:06.262Z,0
2017-05-14T03:09:07.687Z,0
2017-05-14T03:10:09.108Z,0
2017-05-14T03:11:10.538Z,0
2017-05-14T03:12:11.966Z,0
2017-05-14T03:13:13.394Z,0
2017-05-14T03:14:14.826Z,0
2017-05-14T03:15:16.258Z,0
2017-05-14T03:16:17.692Z,0
2017-05-14T03:17:19.130Z,0
2017-05-14T03:18:20.553Z,0
2017-05-14T03:19:21.981Z,0
2017-05-14T03:20:23.412Z,0
2017-05-14T03:21:24.839Z,0
2017-05-14T03:22:26.273Z,0
2017-05-14T03:23:27.697Z,0
2017-05-14T03:24:29.126Z,0
2017-05-14T03:25:30.555Z,0
2017-05-14T03:26:31.983Z,0
2017-05-14T03:27:33.421Z,0
2017-05-14T03:28:34.845Z,0
2017-05-14T03:29:36.269Z,0
2017-05-14T03:30:37.700Z,0
2017-05-14T03:31:39.127Z,0
2017-05-14T03:32:40.616Z,0
2017-05-14T03:33:42.779Z,0
2017-05-14T03:34:43.413Z,0
2017-05-14T03:35:44.864Z,0
2017-05-14T03:36:46.297Z,0
2017-05-14T03:37:47.729Z,0
2017-05-14T03:38:49.252Z,0
2017-05-14T03:39:50.694Z,0
2017-05-14T03:40:52.122Z,0
2017-05-14T03:41:53.551Z,0
2017-05-14T03:42:54.982Z,0
2017-05-14T03:43:56.412Z,0
2017-05-14T03:44:57.844Z,0
2017-05-14T03:45:59.272Z,0
2017-05-14T03:47:00.701Z,0
2017-05-14T03:48:02.129Z,0
2017-05-14T03:49:03.562Z,0
2017-05-14T03:50:05.091Z,0
2017-05-14T03:51:06.523Z,5
2017-05-14T03:52:07.949Z,5
2017-05-14T03:53:09.380Z,5
2017-05-14T03:54:10.813Z,5
2017-05-14T03:55:12.237Z,5
2017-05-14T03:56:13.675Z,5
2017-05-14T03:57:15.191Z,5
2017-05-14T03:58:16.646Z,5
2017-05-14T03:59:18.072Z,5
2017-05-14T04:00:19.508Z,5
2017-05-14T04:01:20.957Z,5
2017-05-14T04:02:22.461Z,5
2017-05-14T04:03:24.473Z,5
2017-05-14T04:04:25.896Z,5
2017-05-14T04:05:27.326Z,5
2017-05-14T04:06:28.760Z,10
2017-05-14T04:07:30.195Z,10
2017-05-14T04:08:31.625Z,10
2017-05-14T04:09:33.055Z,10
2017-05-14T04:10:34.489Z,10
2017-05-14T04:11:35.920Z,10
2017-05-14T04:12:37.352Z,10
2017-05-14T04:13:38.782Z,10
2017-05-14T04:14:40.210Z,10
2017-05-14T04:15:41.645Z,10
2017-05-14T04:16:43.076Z,10
2017-05-14T04:17:44.499Z,10
2017-05-14T04:18:45.931Z,15
2017-05-14T04:19:47.369Z,15
2017-05-14T04:20:48.793Z,15
2017-05-14T04:21:50.224Z,15
2017-05-14T04:22:51.655Z,15
2017-05-14T04:23:53.571Z,15
2017-05-14T04:24:54.995Z,15
2017-05-14T04:25:56.426Z,15
2017-05-14T04:26:57.859Z,15
2017-05-14T04:27:59.291Z,15
2017-05-14T04:29:00.721Z,15
2017-05-14T04:30:02.154Z,15
2017-05-14T04:31:03.587Z,20
2017-05-14T04:32:05.011Z,20
2017-05-14T04:33:06.444Z,20
2017-05-14T04:34:07.873Z,20
2017-05-14T04:35:11.043Z,20
2017-05-14T04:36:12.474Z,20
2017-05-14T04:37:13.902Z,20
2017-05-14T04:38:15.333Z,20
2017-05-14T04:39:16.749Z,20
2017-05-14T04:40:18.182Z,20
2017-05-14T04:41:20.211Z,25
2017-05-14T04:42:21.641Z,25
2017-05-14T04:43:23.070Z,25
2017-05-14T04:44:24.503Z,30
2017-05-14T04:45:25.934Z,30
2017-05-14T04:46:27.365Z,30
2017-05-14T04:47:28.803Z,30
2017-05-14T04:48:30.237Z,30
2017-05-14T04:49:31.665Z,30
2017-05-14T04:50:33.094Z,30
2017-05-14T04:51:34.520Z,30
2017-05-14T04:52:35.953Z,30
2017-05-14T04:53:37.381Z,30
2017-05-14T04:54:38.854Z,30
2017-05-14T04:55:40.244Z,30
2017-05-14T04:56:41.675Z,30
2017-05-14T04:57:43.107Z,30
2017-05-14T04:58:44.545Z,35
2017-05-14T04:59:45.973Z,35
2017-05-14T05:00:47.408Z,35
2017-05-14T05:01:48.834Z,35
2017-05-14T05:02:50.265Z,35
2017-05-14T05:03:51.695Z,35
2017-05-14T05:04:53.124Z,35
2017-05-14T05:05:54.548Z,35
2017-05-14T05:06:55.977Z,35
2017-05-14T05:07:57.411Z,35
2017-05-14T05:08:58.843Z,35
2017-05-14T05:10:00.271Z,35
2017-05-14T05:11:01.700Z,35
2017-05-14T05:12:03.133Z,35
2017-05-14T05:13:04.563Z,35
2017-05-14T05:14:05.994Z,35
2017-05-14T05:15:07.429Z,35
2017-05-14T05:16:08.864Z,35
2017-05-14T05:17:10.297Z,40
2017-05-14T05:18:11.721Z,40
2017-05-14T05:19:13.160Z,40
2017-05-14T05:20:15.493Z,40
2017-05-14T05:21:16.925Z,40
2017-05-14T05:22:18.363Z,40
2017-05-14T05:23:19.808Z,40
2017-05-14T05:24:21.237Z,40
2017-05-14T05:25:22.670Z,40
2017-05-14T05:26:24.105Z,40
2017-05-14T05:27:25.533Z,40
2017-05-14T05:28:26.973Z,40
2017-05-14T05:29:28.403Z,40
2017-05-14T05:30:29.840Z,40
2017-05-14T05:31:31.933Z,40
2017-05-14T05:32:33.364Z,40
2017-05-14T05:33:34.906Z,40
2017-05-14T05:34:37.004Z,40
2017-05-14T05:35:38.425Z,40
2017-05-14T05:36:39.869Z,40
2017-05-14T05:37:41.301Z,40
2017-05-14T05:38:42.731Z,40
2017-05-14T05:39:44.165Z,40
2017-05-14T05:40:45.593Z,40
2017-05-14T05:41:47.027Z,40
2017-05-14T05:42:48.462Z,45
2017-05-14T05:43:49.889Z,45
2017-05-14T05:44:51.317Z,45
2017-05-14T05:45:52.751Z,45
2017-05-14T05:46:54.183Z,45
2017-05-14T05:47:55.614Z,45
2017-05-14T05:48:57.048Z,45
2017-05-14T05:49:58.475Z,45
2017-05-14T05:50:59.916Z,45
2017-05-14T05:52:01.346Z,45
2017-05-14T05:53:02.781Z,45
2017-05-14T05:54:04.214Z,45
2017-05-14T05:55:05.656Z,45
2017-05-14T05:56:07.093Z,45
2017-05-14T05:57:08.518Z,45
2017-05-14T05:58:09.958Z,45
2017-05-14T05:59:11.384Z,45
2017-05-14T06:00:12.816Z,45
2017-05-14T06:01:14.250Z,45
2017-05-14T06:02:15.687Z,45
2017-05-14T06:03:17.114Z,45
2017-05-14T06:04:18.540Z,45
2017-05-14T06:05:19.972Z,45
2017-05-14T06:06:21.404Z,45
2017-05-14T06:07:22.837Z,45
2017-05-14T06:08:24.261Z,45
2017-05-14T06:09:25.694Z,45
2017-05-14T06:10:27.127Z,50
2017-05-14T06:11:28.563Z,50
2017-05-14T06:12:29.992Z,50
2017-05-14T06:13:31.425Z,50
2017-05-14T06:14:32.855Z,50
2017-05-14T06:15:34.279Z,50
2017-05-14T06:16:35.713Z,50
2017-05-14T06:17:37.153Z,50
2017-05-14T06:18:38.582Z,50
2017-05-14T06:19:40.013Z,50
2017-05-14T06:20:41.454Z,50
2017-05-14T06:21:42.886Z,50
2017-05-14T06:22:44.340Z,50
2017-05-14T06:23:45.764Z,50
2017-05-14T06:24:47.195Z,50
2017-05-14T06:25:48.632Z,50
2017-05-14T06:26:50.061Z,55
2017-05-14T06:27:51.497Z,55
2017-05-14T06:28:52.920Z,55
2017-05-14T06:29:54.363Z,55
2017-05-14T06:30:55.790Z,55
2017-05-14T06:31:57.222Z,60
2017-05-14T06:32:58.653Z,65
2017-05-14T06:34:00.086Z,60
2017-05-14T06:35:01.517Z,65
2017-05-14T06:36:02.972Z,70
2017-05-14T06:37:04.407Z,70
2017-05-14T06:38:05.840Z,75
2017-05-14T06:39:07.278Z,80
2017-05-14T06:40:08.747Z,80
2017-05-14T06:41:11.089Z,80
2017-05-14T06:42:12.582Z,80
2017-05-14T06:43:14.011Z,80
2017-05-14T06:44:15.449Z,75
2017-05-14T06:45:16.885Z,80
2017-05-14T06:46:19.254Z,80
2017-05-14T06:47:20.798Z,85
2017-05-14T06:48:22.230Z,85
2017-05-14T06:49:23.665Z,80
2017-05-14T06:50:25.131Z,80
2017-05-14T06:51:26.563Z,85
2017-05-14T06:52:28.003Z,85
2017-05-14T06:53:29.446Z,90
2017-05-14T06:54:30.892Z,90
2017-05-14T06:55:32.325Z,90
2017-05-14T06:56:33.752Z,90
2017-05-14T06:57:35.190Z,85
2017-05-14T06:58:36.622Z,85
2017-05-14T06:59:38.057Z,85
2017-05-14T07:00:39.513Z,85
2017-05-14T07:01:40.984Z,85
2017-05-14T07:02:42.461Z,90
2017-05-14T07:03:44.670Z,90
2017-05-14T07:04:46.109Z,90
2017-05-14T07:05:47.537Z,90
2017-05-14T07:06:48.967Z,90
2017-05-14T07:07:50.397Z,95
2017-05-14T07:08:52.709Z,95
2017-05-14T07:09:54.145Z,100
2017-05-14T07:10:55.584Z,100
2017-05-14T07:11:57.023Z,100
2017-05-14T07:12:58.458Z,95
2017-05-14T07:13:59.890Z,90
2017-05-14T07:15:01.324Z,90
2017-05-14T07:16:02.758Z,90
2017-05-14T07:17:04.198Z,90
2017-05-14T07:18:05.632Z,90
2017-05-14T07:19:07.071Z,90
2017-05-14T07:20:08.512Z,90
2017-05-14T07:21:09.946Z,90
2017-05-14T07:22:11.399Z,95
2017-05-14T07:23:12.833Z,90
2017-05-14T07:24:14.275Z,85
2017-05-14T07:25:15.711Z,80
2017-05-14T07:26:17.145Z,75
2017-05-14T07:27:20.223Z,40
2017-05-14T07:28:21.657Z,70
2017-05-14T07:29:23.097Z,65
2017-05-14T07:30:24.528Z,60
2017-05-14T07:31:25.959Z,65
2017-05-14T07:32:27.390Z,65
2017-05-14T07:33:28.822Z,65
2017-05-14T07:34:30.263Z,75
2017-05-14T07:35:31.692Z,80
2017-05-14T07:36:33.130Z,80
2017-05-14T07:37:34.568Z,85
2017-05-14T07:38:36.003Z,80
2017-05-14T07:39:37.434Z,65
2017-05-14T07:40:38.869Z,65
2017-05-14T07:41:40.299Z,60
2017-05-14T07:42:41.735Z,65
2017-05-14T07:43:43.168Z,65
2017-05-14T07:44:44.612Z,70
2017-05-14T07:45:46.042Z,70
2017-05-14T07:46:47.477Z,70
2017-05-14T07:47:48.912Z,70
2017-05-14T07:48:50.349Z,70
2017-05-14T07:49:51.789Z,70
2017-05-14T07:50:53.259Z,70
2017-05-14T07:51:54.739Z,70
2017-05-14T07:52:56.165Z,70
2017-05-14T07:53:57.601Z,70
2017-05-14T07:54:59.036Z,70
2017-05-14T07:56:00.513Z,75
2017-05-14T07:57:01.951Z,75
2017-05-14T07:58:03.384Z,75
2017-05-14T07:59:04.818Z,75
2017-05-14T08:00:06.258Z,75
2017-05-14T08:01:07.692Z,75
2017-05-14T08:02:09.175Z,75
2017-05-14T08:03:10.618Z,75
2017-05-14T08:04:12.048Z,75
2017-05-14T08:05:13.483Z,75
2017-05-14T08:06:14.922Z,75
2017-05-14T08:07:16.356Z,75
2017-05-14T08:08:17.798Z,80
2017-05-14T08:09:19.274Z,80
2017-05-14T08:10:20.717Z,80
2017-05-14T08:11:22.169Z,75
2017-05-14T08:12:23.606Z,80
2017-05-14T08:13:25.061Z,80
2017-05-14T08:14:26.493Z,80
2017-05-14T08:15:27.927Z,80
2017-05-14T08:16:29.365Z,80
2017-05-14T08:17:30.801Z,80
2017-05-14T08:18:32.238Z,85
2017-05-14T08:19:33.674Z,85
2017-05-14T08:20:35.168Z,85
2017-05-14T08:21:36.608Z,85
2017-05-14T08:22:38.042Z,85
2017-05-14T08:23:39.474Z,85
2017-05-14T08:24:40.917Z,85
2017-05-14T08:25:42.353Z,30
2017-05-14T08:26:43.791Z,45
2017-05-14T08:27:45.229Z,90
2017-05-14T08:28:46.676Z,85
2017-05-14T08:29:48.117Z,85
2017-05-14T08:30:49.554Z,85
2017-05-14T08:31:50.997Z,75
2017-05-14T08:32:52.487Z,85
2017-05-14T08:33:53.922Z,75
2017-05-14T08:34:55.357Z,95
2017-05-14T08:35:57.556Z,95
2017-05-14T08:36:58.982Z,95
2017-05-14T08:38:00.426Z,100
2017-05-14T08:39:01.862Z,65
2017-05-14T08:40:03.299Z,105
2017-05-14T08:41:04.733Z,105
2017-05-14T08:42:06.177Z,115
2017-05-14T08:43:07.620Z,125
2017-05-14T08:44:09.061Z,135
2017-05-14T08:45:10.505Z,115
2017-05-14T08:46:11.936Z,110
2017-05-14T08:47:13.374Z,130
2017-05-14T08:48:14.821Z,115
2017-05-14T08:49:16.255Z,95
2017-05-14T08:50:17.690Z,95
2017-05-14T08:51:19.129Z,70
2017-05-14T08:52:20.569Z,70
2017-05-14T08:53:22.008Z,65
2017-05-14T08:54:23.454Z,70
2017-05-14T08:55:24.892Z,70
2017-05-14T08:56:26.333Z,65
2017-05-14T08:57:27.763Z,60
2017-05-14T08:58:29.206Z,55
2017-05-14T08:59:30.636Z,50
2017-05-14T09:00:32.072Z,65
2017-05-14T09:01:33.510Z,65
2017-05-14T09:02:34.949Z,60
2017-05-14T09:03:36.383Z,55
2017-05-14T09:04:37.814Z,65
2017-05-14T09:05:39.260Z,75
2017-05-14T09:06:41.593Z,80
2017-05-14T09:07:43.034Z,80
2017-05-14T09:08:44.470Z,95
2017-05-14T09:09:45.902Z,105
2017-05-14T09:10:47.344Z,125
2017-05-14T09:11:48.777Z,135
2017-05-14T09:12:50.211Z,140
2017-05-14T09:13:51.654Z,135
2017-05-14T09:14:53.087Z,135
2017-05-14T09:15:54.524Z,135
2017-05-14T09:16:55.967Z,135
2017-05-14T09:17:57.407Z,140
2017-05-14T09:18:58.845Z,140
2017-05-14T09:20:01.102Z,140
2017-05-14T09:21:02.536Z,150
2017-05-14T09:22:03.975Z,150
2017-05-14T09:23:05.418Z,155
2017-05-14T09:24:06.862Z,160
2017-05-14T09:25:08.297Z,170
2017-05-14T09:26:09.734Z,175
2017-05-14T09:27:12.080Z,180
2017-05-14T09:28:14.133Z,175
2017-05-14T09:29:15.574Z,190
2017-05-14T09:30:17.011Z,180
2017-05-14T09:31:18.449Z,165
2017-05-14T09:32:19.899Z,160
2017-05-14T09:33:21.381Z,170
2017-05-14T09:34:22.778Z,170
2017-05-14T09:35:24.214Z,170
2017-05-14T09:36:25.647Z,170
2017-05-14T09:37:27.909Z,180
2017-05-14T09:38:29.862Z,180
2017-05-14T09:39:31.304Z,170
2017-05-14T09:40:32.742Z,150
2017-05-14T09:41:34.175Z,135
2017-05-14T09:42:35.613Z,135
2017-05-14T09:43:37.056Z,115
2017-05-14T09:44:38.853Z,105
2017-05-14T09:45:40.295Z,95
2017-05-14T09:46:41.731Z,80
2017-05-14T09:47:43.169Z,75
2017-05-14T09:48:44.604Z,70
2017-05-14T09:49:46.043Z,70
2017-05-14T09:50:47.474Z,70
2017-05-14T09:51:48.919Z,70
2017-05-14T09:52:50.357Z,85
2017-05-14T09:53:51.797Z,90
2017-05-14T09:54:53.223Z,85
2017-05-14T09:55:55.529Z,95
2017-05-14T09:56:56.964Z,90
2017-05-14T09:57:58.410Z,85
2017-05-14T09:58:59.852Z,75
2017-05-14T10:00:01.296Z,70
2017-05-14T10:01:02.731Z,60
2017-05-14T10:02:04.169Z,65
2017-05-14T10:03:05.621Z,70
2017-05-14T10:04:07.059Z,80
2017-05-14T10:05:08.506Z,95
2017-05-14T10:06:09.948Z,110
2017-05-14T10:07:11.388Z,120
2017-05-14T10:08:12.830Z,135
2017-05-14T10:09:14.267Z,125
2017-05-14T10:10:15.700Z,130
2017-05-14T10:11:17.139Z,130
2017-05-14T10:12:18.581Z,135
2017-05-14T10:13:20.015Z,145
2017-05-14T10:14:21.459Z,145
2017-05-14T10:15:22.905Z,155
2017-05-14T10:16:24.344Z,150
2017-05-14T10:17:25.787Z,155
2017-05-14T10:18:27.228Z,155
2017-05-14T10:19:28.666Z,155
2017-05-14T10:20:30.104Z,155
2017-05-14T10:21:31.546Z,145
2017-05-14T10:22:32.983Z,110
2017-05-14T10:23:34.424Z,125
2017-05-14T10:24:35.867Z,160
2017-05-14T10:25:37.309Z,155
2017-05-14T10:26:38.750Z,175
2017-05-14T10:27:40.190Z,195
2017-05-14T10:28:41.621Z,200
2017-05-14T10:29:43.063Z,200
2017-05-14T10:30:44.506Z,215
2017-05-14T10:31:45.945Z,225
2017-05-14T10:32:47.384Z,230
2017-05-14T10:33:48.829Z,230
2017-05-14T10:34:50.308Z,225
2017-05-14T10:35:51.705Z,220
2017-05-14T10:36:53.149Z,205
2017-05-14T10:37:54.583Z,190
2017-05-14T10:38:56.027Z,180
2017-05-14T10:39:57.463Z,185
2017-05-14T10:40:58.906Z,185
2017-05-14T10:42:00.349Z,205
2017-05-14T10:43:01.784Z,205
2017-05-14T10:44:03.233Z,200
2017-05-14T10:45:04.677Z,205
2017-05-14T10:46:06.110Z,205
2017-05-14T10:47:07.548Z,200
2017-05-14T10:48:08.986Z,200
2017-05-14T10:49:10.432Z,200
2017-05-14T10:50:12.781Z,190
2017-05-14T10:51:14.222Z,205
2017-05-14T10:52:15.661Z,215
2017-05-14T10:53:17.104Z,220
2017-05-14T10:54:18.601Z,225
2017-05-14T10:55:20.051Z,210
2017-05-14T10:56:21.490Z,245
2017-05-14T10:57:22.923Z,205
2017-05-14T10:58:24.369Z,190
2017-05-14T10:59:25.804Z,175
2017-05-14T11:00:27.283Z,170
2017-05-14T11:01:28.749Z,190
2017-05-14T11:02:30.196Z,140
2017-05-14T11:03:31.651Z,120
2017-05-14T11:04:33.093Z,125
2017-05-14T11:05:34.536Z,140
2017-05-14T11:06:35.972Z,140
2017-05-14T11:07:37.416Z,125
2017-05-14T11:08:38.862Z,135
2017-05-14T11:09:40.297Z,160
2017-05-14T11:10:41.735Z,140
2017-05-14T11:11:43.174Z,125
2017-05-14T11:12:44.612Z,105
2017-05-14T11:13:46.050Z,80
2017-05-14T11:14:47.489Z,80
2017-05-14T11:15:48.940Z,85
2017-05-14T11:16:50.377Z,95
2017-05-14T11:17:51.817Z,110
2017-05-14T11:18:53.283Z,120
2017-05-14T11:19:54.724Z,125
2017-05-14T11:20:56.166Z,110
2017-05-14T11:21:57.613Z,115
2017-05-14T11:22:59.054Z,130
2017-05-14T11:24:00.492Z,165
2017-05-14T11:25:01.937Z,175
2017-05-14T11:26:03.373Z,155
2017-05-14T11:27:04.812Z,155
2017-05-14T11:28:06.259Z,170
2017-05-14T11:29:07.700Z,165
2017-05-14T11:30:09.149Z,160
2017-05-14T11:31:10.584Z,150
2017-05-14T11:32:12.019Z,155
2017-05-14T11:33:13.467Z,140
2017-05-14T11:34:14.931Z,155
2017-05-14T11:35:16.371Z,170
2017-05-14T11:36:17.810Z,175
2017-05-14T11:37:19.254Z,190
2017-05-14T11:38:20.696Z,200
2017-05-14T11:39:22.137Z,185
2017-05-14T11:40:23.586Z,180
2017-05-14T11:41:25.038Z,190
2017-05-14T11:42:27.381Z,230
2017-05-14T11:43:28.907Z,245
2017-05-14T11:44:30.350Z,235
2017-05-14T11:45:31.788Z,265
2017-05-14T11:46:33.239Z,240
2017-05-14T11:47:34.674Z,230
2017-05-14T11:48:36.112Z,280
2017-05-14T11:49:37.559Z,280
2017-05-14T11:50:38.989Z,275
2017-05-14T11:51:40.426Z,280
2017-05-14T11:52:41.868Z,295
2017-05-14T11:53:43.309Z,315
2017-05-14T11:54:44.759Z,330
2017-05-14T11:55:46.198Z,325
2017-05-14T11:56:47.635Z,315
2017-05-14T11:57:49.118Z,305
2017-05-14T11:58:50.560Z,280
2017-05-14T11:59:51.996Z,290
2017-05-14T12:00:53.443Z,280
2017-05-14T12:01:54.880Z,325
2017-05-14T12:02:56.319Z,350
2017-05-14T12:03:57.757Z,360
2017-05-14T12:04:59.244Z,335
2017-05-14T12:06:00.686Z,280
2017-05-14T12:07:02.128Z,210
2017-05-14T12:08:03.575Z,165
2017-05-14T12:09:05.105Z,150
2017-05-14T12:10:06.542Z,130
2017-05-14T12:11:07.977Z,120
2017-05-14T12:12:09.411Z,120
2017-05-14T12:13:10.862Z,140
2017-05-14T12:14:12.288Z,155
2017-05-14T12:15:13.723Z,160
2017-05-14T12:16:16.011Z,150
2017-05-14T12:17:17.453Z,130
2017-05-14T12:18:18.895Z,145
2017-05-14T12:19:20.331Z,145
2017-05-14T12:20:21.774Z,120
2017-05-14T12:21:23.273Z,115
2017-05-14T12:22:24.717Z,110
2017-05-14T12:23:26.169Z,125
2017-05-14T12:24:27.604Z,140
2017-05-14T12:25:29.040Z,180
2017-05-14T12:26:30.498Z,195
2017-05-14T12:27:32.828Z,190
2017-05-14T12:28:34.262Z,205
2017-05-14T12:29:35.710Z,225
2017-05-14T12:30:37.157Z,240
2017-05-14T12:31:38.667Z,270
2017-05-14T12:32:40.103Z,305
2017-05-14T12:33:41.547Z,300
2017-05-14T12:34:42.988Z,290
2017-05-14T12:35:44.425Z,300
2017-05-14T12:36:45.866Z,290
2017-05-14T12:37:47.362Z,305
2017-05-14T12:38:48.807Z,325
2017-05-14T12:39:50.252Z,325
2017-05-14T12:40:51.699Z,315
2017-05-14T12:41:53.159Z,305
2017-05-14T12:42:55.292Z,315
2017-05-14T12:43:56.730Z,330
2017-05-14T12:44:58.172Z,335
2017-05-14T12:45:59.623Z,325
2017-05-14T12:47:01.067Z,315
2017-05-14T12:48:02.514Z,255
2017-05-14T12:49:03.945Z,285
2017-05-14T12:50:05.399Z,305
2017-05-14T12:51:06.836Z,290
2017-05-14T12:52:08.280Z,210
2017-05-14T12:53:09.737Z,200
2017-05-14T12:54:11.167Z,245
2017-05-14T12:55:12.611Z,275
2017-05-14T12:56:14.061Z,215
2017-05-14T12:57:15.515Z,280
2017-05-14T12:58:16.946Z,265
2017-05-14T12:59:18.385Z,305
2017-05-14T13:00:20.788Z,325
2017-05-14T13:01:22.232Z,315
2017-05-14T13:02:23.673Z,295
2017-05-14T13:03:25.116Z,315
2017-05-14T13:04:26.553Z,345
2017-05-14T13:05:27.993Z,340
2017-05-14T13:06:29.439Z,315
2017-05-14T13:07:30.927Z,285
2017-05-14T13:08:32.325Z,335
2017-05-14T13:09:33.769Z,305
2017-05-14T13:10:35.203Z,310
2017-05-14T13:11:36.643Z,325
2017-05-14T13:12:38.091Z,345
2017-05-14T13:13:39.528Z,300
2017-05-14T13:14:40.968Z,345
2017-05-14T13:15:42.414Z,270
2017-05-14T13:16:43.853Z,235
2017-05-14T13:17:45.297Z,185
2017-05-14T13:18:46.739Z,205
2017-05-14T13:19:48.175Z,245
2017-05-14T13:20:49.623Z,275
2017-05-14T13:21:51.058Z,260
2017-05-14T13:22:52.500Z,270
2017-05-14T13:23:53.943Z,300
2017-05-14T13:24:55.388Z,325
2017-05-14T13:25:56.824Z,355
2017-05-14T13:26:58.272Z,280
2017-05-14T13:27:59.711Z,250
2017-05-14T13:29:01.151Z,235
2017-05-14T13:30:02.590Z,240
2017-05-14T13:31:04.044Z,220
2017-05-14T13:32:05.485Z,145
2017-05-14T13:33:06.930Z,85
2017-05-14T13:34:08.367Z,70
2017-05-14T13:35:09.801Z,60
2017-05-14T13:36:11.244Z,55
2017-05-14T13:37:12.685Z,55
2017-05-14T13:38:14.126Z,55
2017-05-14T13:39:15.562Z,65
2017-05-14T13:40:17.048Z,70
2017-05-14T13:41:18.488Z,70
2017-05-14T13:42:19.919Z,70
2017-05-14T13:43:21.370Z,65
2017-05-14T13:44:22.805Z,70
2017-05-14T13:45:24.242Z,85
2017-05-14T13:46:25.692Z,100
2017-05-14T13:47:27.129Z,105
2017-05-14T13:48:28.578Z,195
2017-05-14T13:49:30.018Z,220
2017-05-14T13:50:31.461Z,330
2017-05-14T13:51:32.905Z,490
2017-05-14T13:52:34.341Z,480
2017-05-14T13:53:35.783Z,315
2017-05-14T13:54:37.226Z,305
2017-05-14T13:55:38.664Z,225
2017-05-14T13:56:40.103Z,205
2017-05-14T13:57:41.548Z,165
2017-05-14T13:58:42.992Z,150
2017-05-14T13:59:44.429Z,140
2017-05-14T14:00:45.872Z,135
2017-05-14T14:01:47.309Z,145
2017-05-14T14:02:48.745Z,160
2017-05-14T14:03:50.186Z,190
2017-05-14T14:04:51.625Z,215
2017-05-14T14:05:53.066Z,210
2017-05-14T14:06:54.508Z,195
2017-05-14T14:07:55.948Z,155
2017-05-14T14:08:57.384Z,140
2017-05-14T14:09:58.828Z,120
2017-05-14T14:11:00.273Z,85
2017-05-14T14:12:01.710Z,75
2017-05-14T14:13:03.143Z,60
2017-05-14T14:14:04.590Z,60
2017-05-14T14:15:06.028Z,60
2017-05-14T14:16:07.469Z,55
2017-05-14T14:17:08.911Z,50
2017-05-14T14:18:10.358Z,55
2017-05-14T14:19:11.793Z,65
2017-05-14T14:20:13.236Z,75
2017-05-14T14:21:14.672Z,100
2017-05-14T14:22:16.111Z,140
2017-05-14T14:23:17.556Z,165
2017-05-14T14:24:18.997Z,145
2017-05-14T14:25:20.434Z,135
2017-05-14T14:26:21.878Z,115
2017-05-14T14:27:23.316Z,120
2017-05-14T14:28:26.048Z,135
2017-05-14T14:29:27.492Z,155
2017-05-14T14:30:28.935Z,150
2017-05-14T14:31:30.377Z,150
2017-05-14T14:32:31.822Z,160
2017-05-14T14:33:33.266Z,175
2017-05-14T14:34:34.702Z,180